Time;durP1;ratioP1;P1;durP2;ratioP2;P2;SDS_P1;SDS_P2;PMS_P1;PMS_P2;Temp;Humidity;BMP_temperature;BMP_pressure;BME280_temperature;BME280_humidity;BME280_pressure;Samples;Min_cycle;Max_cycle;Signal;HPM_P1;HPM_P2
2022/01/01 00:02:20;;;;;;;32.50;18.63;;;;;;;10.71;86.40;100752.69;5053381;28;20092;-56
2022/01/01 00:04:47;;;;;;;30.77;15.85;;;;;;;10.73;86.20;100755.31;5035774;28;20032;-56
2022/01/01 00:07:20;;;;;;;26.48;14.88;;;;;;;10.72;86.55;100756.16;5053818;28;20060;-56
2022/01/01 00:09:45;;;;;;;21.67;14.82;;;;;;;10.71;86.41;100755.28;5051967;28;20496;-56
2022/01/01 00:12:17;;;;;;;26.75;15.68;;;;;;;10.71;86.41;100757.00;5053400;28;20091;-56
2022/01/01 00:14:42;;;;;;;32.60;15.52;;;;;;;10.70;86.58;100755.22;5052418;28;20040;-55
2022/01/01 00:17:16;;;;;;;31.17;15.43;;;;;;;10.70;86.54;100748.34;5053310;28;20033;-56
2022/01/01 00:19:42;;;;;;;26.98;16.67;;;;;;;10.70;86.64;100748.34;5053284;28;20025;-56
2022/01/01 00:22:07;;;;;;;24.80;14.80;;;;;;;10.69;86.37;100745.69;5053594;28;20611;-56
2022/01/01 00:24:33;;;;;;;25.95;16.00;;;;;;;10.69;86.29;100744.00;5053256;28;20500;-56
2022/01/01 00:27:04;;;;;;;32.42;16.73;;;;;;;10.70;86.39;100742.28;5035426;28;20061;-56
2022/01/01 00:29:36;;;;;;;32.03;16.20;;;;;;;10.70;86.36;100740.56;5052089;28;20055;-56
2022/01/01 00:32:05;;;;;;;32.83;15.35;;;;;;;10.70;86.30;100739.69;5035439;28;20037;-56
2022/01/01 00:34:41;;;;;;;23.80;15.35;;;;;;;10.71;86.74;100747.53;5052149;28;20029;-56
2022/01/01 00:37:17;;;;;;;22.67;14.35;;;;;;;10.70;86.31;100739.69;5056613;28;20049;-56
2022/01/01 00:39:46;;;;;;;27.50;14.30;;;;;;;10.70;86.70;100739.69;5055822;28;20037;-55
2022/01/01 00:42:17;;;;;;;23.20;13.85;;;;;;;10.70;86.82;100745.75;5057030;28;20459;-56
2022/01/01 00:44:43;;;;;;;25.75;14.75;;;;;;;10.68;86.79;100747.44;5057272;28;20083;-56
2022/01/01 00:47:10;;;;;;;27.73;15.15;;;;;;;10.70;86.67;100750.06;5057672;28;20045;-56
2022/01/01 00:49:36;;;;;;;26.25;14.43;;;;;;;10.70;86.27;100755.22;5057063;28;20029;-56
2022/01/01 00:52:04;;;;;;;23.08;14.65;;;;;;;10.69;86.61;100763.84;5057212;28;20059;-55
2022/01/01 00:54:35;;;;;;;26.95;13.63;;;;;;;10.68;86.51;100763.00;5056737;28;20025;-56
2022/01/01 00:57:07;;;;;;;24.92;13.60;;;;;;;10.69;86.69;100762.16;5055914;28;20037;-56
2022/01/01 00:59:41;;;;;;;25.48;13.80;;;;;;;10.67;86.48;100761.22;5055668;28;20119;-56
2022/01/01 01:02:07;;;;;;;;;;;;;;;10.66;86.60;100760.38;5056215;28;20118;-56
2022/01/01 01:04:37;;;;;;;24.60;12.25;;;;;;;10.66;86.67;100764.66;5056482;28;19927;-55
2022/01/01 01:07:12;;;;;;;23.55;12.40;;;;;;;10.64;86.67;100754.25;5057283;28;20044;-56
2022/01/01 01:09:41;;;;;;;21.52;12.30;;;;;;;10.67;86.33;100756.03;5056953;28;20056;-56
2022/01/01 01:12:20;;;;;;;21.75;12.13;;;;;;;10.66;86.30;100746.50;5056557;28;20169;-56
2022/01/01 01:14:52;;;;;;;17.52;11.10;;;;;;;10.67;86.66;100750.84;5056044;28;20064;-55
2022/01/01 01:17:20;;;;;;;18.63;10.88;;;;;;;10.66;86.70;100752.59;5055829;28;20522;-55
2022/01/01 01:19:51;;;;;;;18.48;9.32;;;;;;;10.66;86.35;100752.59;5056230;28;20033;-56
2022/01/01 01:22:17;;;;;;;16.27;9.70;;;;;;;10.69;86.46;100744.00;5038229;28;20407;-56
2022/01/01 01:24:43;;;;;;;14.02;10.25;;;;;;;10.68;86.38;100750.03;5056435;28;20029;-56
2022/01/01 01:27:08;;;;;;;18.05;10.40;;;;;;;10.69;86.43;100750.88;5056509;28;20063;-55
2022/01/01 01:29:42;;;;;;;19.02;9.50;;;;;;;10.69;86.60;100749.19;5056249;28;20051;-56
2022/01/01 01:32:19;;;;;;;19.02;9.77;;;;;;;10.69;86.65;100745.69;5038744;28;20037;-56
2022/01/01 01:34:50;;;;;;;14.00;9.00;;;;;;;10.69;86.40;100745.69;5038620;28;20115;-56
2022/01/01 01:37:21;;;;;;;19.20;9.18;;;;;;;10.68;86.53;100742.25;5038980;28;20045;-56
2022/01/01 01:39:49;;;;;;;20.13;9.85;;;;;;;10.69;86.65;100748.28;5056182;28;20519;-56
2022/01/01 01:42:20;;;;;;;17.20;9.63;;;;;;;10.68;86.63;100747.44;5056156;28;20044;-56
2022/01/01 01:45:00;;;;;;;17.00;9.95;;;;;;;10.68;86.35;100744.84;5054916;28;20033;-56
2022/01/01 01:47:34;;;;;;;20.70;9.48;;;;;;;10.68;86.76;100746.53;5055724;28;20551;-56
2022/01/01 01:50:09;;;;;;;21.77;8.38;;;;;;;10.68;86.28;100739.66;5054790;28;20068;-56
2022/01/01 01:52:37;;;;;;;15.75;8.82;;;;;;;10.69;86.68;100745.69;5055905;28;20139;-56
2022/01/01 01:55:14;;;;;;;18.95;8.85;;;;;;;10.68;86.36;100752.63;5056424;28;20087;-55
2022/01/01 01:57:45;;;;;;;17.83;8.65;;;;;;;10.69;86.40;100758.66;5056041;28;20037;-56
2022/01/01 02:00:58;;;;;;;17.95;9.85;;;;;;;10.69;86.70;100745.69;5054559;28;20036;-56
2022/01/01 02:03:27;;;;;;;20.33;8.85;;;;;;;10.67;86.51;100750.84;5055775;28;20060;-56
2022/01/01 02:05:55;;;;;;;18.67;9.55;;;;;;;10.68;86.20;100760.41;5037746;28;20064;-56
2022/01/01 02:08:21;;;;;;;15.60;8.52;;;;;;;10.68;86.61;100760.41;5055267;28;20037;-56
2022/01/01 02:10:51;;;;;;;22.77;10.20;;;;;;;10.66;86.60;100760.38;5054398;28;20508;-56
2022/01/01 02:13:26;;;;;;;17.27;8.40;;;;;;;10.66;86.27;100755.19;5054330;28;20037;-55
2022/01/01 02:18:21;;;;;;;16.25;9.15;;;;;;;10.66;86.09;100756.88;5055459;28;20511;-55
2022/01/01 02:20:50;;;;;;;26.70;9.00;;;;;;;10.65;86.52;100750.81;5037134;28;20428;-55
2022/01/01 02:23:22;;;;;;;16.48;8.85;;;;;;;10.65;86.38;100737.88;5054134;28;20095;-56
2022/01/01 02:25:52;;;;;;;20.23;8.85;;;;;;;10.65;86.37;100747.34;5055711;28;20033;-56
2022/01/01 02:28:19;;;;;;;15.10;7.97;;;;;;;10.64;86.23;100746.47;5054497;28;20103;-56
2022/01/01 02:30:49;;;;;;;17.73;9.25;;;;;;;10.65;86.38;100760.31;5054960;28;20033;-56
2022/01/01 02:33:18;;;;;;;16.05;8.18;;;;;;;10.64;86.45;100754.25;5055391;28;20106;-56
2022/01/01 02:35:43;;;;;;;12.25;8.65;;;;;;;10.64;86.67;100751.66;5053931;28;20036;-56
2022/01/01 02:38:09;;;;;;;13.40;8.23;;;;;;;10.63;86.76;100754.19;5054897;28;20045;-56
2022/01/01 02:40:38;;;;;;;17.98;8.07;;;;;;;10.63;86.44;100755.09;5055397;28;20090;-56
2022/01/01 02:43:07;;;;;;;16.15;8.55;;;;;;;10.64;86.37;100767.22;5053868;28;20047;-56
2022/01/01 02:45:40;;;;;;;18.77;9.07;;;;;;;10.65;86.37;100758.59;5054032;28;20048;-56
2022/01/01 02:48:15;;;;;;;18.20;8.50;;;;;;;10.62;86.24;100753.34;5054065;28;20132;-56
2022/01/01 02:50:43;;;;;;;18.95;8.70;;;;;;;10.63;86.19;100757.69;5037726;28;20041;-56
2022/01/01 02:53:13;;;;;;;14.07;8.20;;;;;;;10.63;86.36;100757.69;5037249;28;20029;-56
2022/01/01 02:55:42;;;;;;;15.98;7.95;;;;;;;10.64;85.98;100755.94;5036942;28;20060;-55
2022/01/01 02:58:11;;;;;;;21.27;8.82;;;;;;;10.63;86.20;100769.75;5053654;28;20041;-56
2022/01/01 03:00:38;;;;;;;14.23;7.72;;;;;;;10.62;86.26;100765.41;5054247;28;20028;-56
2022/01/01 03:03:04;;;;;;;16.80;7.72;;;;;;;10.62;86.02;100768.00;5054826;28;20052;-56
2022/01/01 03:05:30;;;;;;;15.55;7.97;;;;;;;10.62;86.33;100770.59;5054855;28;20037;-56
2022/01/01 03:07:56;;;;;;;17.27;9.55;;;;;;;10.61;86.15;100774.91;5037137;28;20107;-56
2022/01/01 03:10:24;;;;;;;15.88;8.18;;;;;;;10.61;86.21;100774.00;5054789;28;20479;-56
2022/01/01 03:12:50;;;;;;;15.13;8.23;;;;;;;10.61;86.13;100767.13;5054390;28;20051;-56
2022/01/01 03:15:16;;;;;;;18.80;7.30;;;;;;;10.61;86.31;100751.56;5053110;28;20052;-56
2022/01/01 03:17:41;;;;;;;11.02;7.00;;;;;;;10.60;86.13;100755.00;5054460;28;20041;-55
2022/01/01 03:20:09;;;;;;;11.35;6.95;;;;;;;10.60;86.49;100755.00;5054737;28;20033;-55
2022/01/01 03:22:35;;;;;;;14.20;7.72;;;;;;;10.60;86.28;100747.22;5054281;28;20496;-56
2022/01/01 03:25:00;;;;;;;15.05;8.25;;;;;;;10.61;85.98;100748.09;5053134;28;20033;-55
2022/01/01 03:27:26;;;;;;;16.65;7.60;;;;;;;10.61;86.51;100743.78;5053855;28;20035;-56
2022/01/01 03:29:51;;;;;;;10.60;6.97;;;;;;;10.63;86.28;100741.22;5054228;28;20048;-56
2022/01/01 03:32:17;;;;;;;17.25;6.82;;;;;;;10.62;86.20;100736.88;5054200;28;20024;-56
2022/01/01 03:34:43;;;;;;;17.15;7.57;;;;;;;10.62;85.96;100730.00;5053973;28;20044;-56
2022/01/01 03:37:11;;;;;;;13.18;7.65;;;;;;;10.63;85.85;100728.28;5052697;28;20041;-56
2022/01/01 03:39:37;;;;;;;15.75;7.28;;;;;;;10.61;86.29;100724.75;5052714;28;20091;-56
2022/01/01 03:42:03;;;;;;;19.58;7.85;;;;;;;10.62;86.04;100721.34;5054325;28;20029;-55
2022/01/01 03:44:37;;;;;;;15.57;7.88;;;;;;;10.62;85.96;100723.91;5053679;28;20041;-56
2022/01/01 03:47:09;;;;;;;19.20;8.50;;;;;;;10.60;86.23;100723.91;5036448;28;20045;-56
2022/01/01 03:49:41;;;;;;;18.33;7.43;;;;;;;10.60;86.00;100734.25;5052706;28;20029;-56
2022/01/01 03:52:09;;;;;;;17.30;6.97;;;;;;;10.60;86.16;100731.66;5053794;28;20051;-56
2022/01/01 03:54:35;;;;;;;18.30;8.30;;;;;;;10.62;85.89;100731.69;5053825;28;20043;-56
2022/01/01 03:57:00;;;;;;;18.73;7.72;;;;;;;10.60;86.00;100734.25;5053523;28;20029;-56
2022/01/01 03:59:32;;;;;;;21.77;7.78;;;;;;;10.61;86.23;100724.75;5053445;28;20037;-56
2022/01/01 04:01:57;;;;;;;14.98;6.97;;;;;;;10.60;86.09;100731.66;5053746;28;20056;-56
2022/01/01 04:04:28;;;;;;;17.80;8.38;;;;;;;10.60;86.02;100743.75;5053627;28;20033;-55
2022/01/01 04:06:54;;;;;;;14.05;7.80;;;;;;;10.59;85.92;100748.06;5052476;28;20086;-56
2022/01/01 04:09:23;;;;;;;16.35;7.25;;;;;;;10.60;86.23;100738.56;5053489;28;20135;-56
2022/01/01 04:11:48;;;;;;;13.00;6.55;;;;;;;10.57;85.93;100744.53;5035729;28;20033;-56
2022/01/01 04:14:19;;;;;;;20.10;8.45;;;;;;;10.59;86.05;100745.47;5053661;28;20043;-56
2022/01/01 04:16:50;;;;;;;12.80;6.93;;;;;;;10.59;85.93;100752.38;5053579;28;20037;-56
2022/01/01 04:19:18;;;;;;;18.33;7.75;;;;;;;10.59;85.92;100758.44;5052300;28;20518;-56
2022/01/01 04:21:46;;;;;;;14.45;7.28;;;;;;;10.58;86.05;100759.25;5053305;28;20450;-55
2022/01/01 04:24:11;;;;;;;16.98;8.05;;;;;;;10.58;86.24;100759.25;5053334;28;20033;-56
2022/01/01 04:26:40;;;;;;;14.02;7.30;;;;;;;10.56;86.14;100760.94;5053607;28;20061;-55
2022/01/01 04:29:06;;;;;;;13.10;7.25;;;;;;;10.57;85.94;100748.88;5053566;28;20033;-56
2022/01/01 04:31:34;;;;;;;16.48;7.47;;;;;;;10.56;85.93;100745.38;5053243;28;20044;-56
2022/01/01 04:34:05;;;;;;;18.92;8.38;;;;;;;10.57;85.86;100759.22;5052083;28;20439;-56
2022/01/01 04:36:33;;;;;;;19.55;7.60;;;;;;;10.56;85.87;100766.13;5053134;28;20051;-56
2022/01/01 04:38:59;;;;;;;12.85;7.53;;;;;;;10.56;85.88;100763.53;5052992;28;20037;-56
2022/01/01 04:41:30;;;;;;;15.68;6.47;;;;;;;10.56;85.87;100768.72;5051942;28;20059;-56
2022/01/01 04:43:58;;;;;;;12.88;6.78;;;;;;;10.56;86.10;100768.72;5035791;28;20037;-55
2022/01/01 04:46:29;;;;;;;11.35;6.22;;;;;;;10.55;85.85;100773.88;5052308;28;20082;-55
2022/01/01 04:49:00;;;;;;;15.35;7.22;;;;;;;10.55;85.96;100769.53;5035329;28;20515;-55
2022/01/01 04:51:31;;;;;;;11.80;6.72;;;;;;;10.55;85.76;100760.91;5035209;28;20048;-56
2022/01/01 04:54:02;;;;;;;17.35;7.07;;;;;;;10.57;85.80;100748.88;5035153;28;20097;-55
2022/01/01 04:56:30;;;;;;;13.52;6.88;;;;;;;10.56;85.92;100758.34;5051950;28;20068;-56
2022/01/01 04:59:03;;;;;;;14.32;6.57;;;;;;;10.55;85.88;100758.31;5053015;28;20086;-56
2022/01/01 05:01:28;;;;;;;16.98;7.22;;;;;;;10.55;86.05;100758.31;5034964;28;20057;-56
2022/01/01 05:03:55;;;;;;;15.50;7.07;;;;;;;10.54;86.23;100753.97;5052950;28;20166;-56
2022/01/01 05:06:20;;;;;;;11.60;6.38;;;;;;;10.53;85.70;100753.06;5051891;28;20476;-56
2022/01/01 05:08:46;;;;;;;14.85;7.38;;;;;;;10.55;85.58;100760.91;5053024;28;20033;-56
2022/01/01 05:11:14;;;;;;;17.13;7.63;;;;;;;10.54;86.01;100762.59;5053006;28;20037;-56
2022/01/01 05:13:40;;;;;;;15.65;7.60;;;;;;;10.52;86.05;100764.25;5053154;28;20028;-55
2022/01/01 05:16:16;;;;;;;13.10;7.55;;;;;;;10.54;85.95;100759.16;5051783;28;20043;-55
2022/01/01 05:18:47;;;;;;;18.05;8.35;;;;;;;10.51;86.17;100744.38;5034925;28;20487;-56
2022/01/01 05:21:15;;;;;;;13.68;7.88;;;;;;;10.53;86.01;100754.78;5036064;28;20476;-56
2022/01/01 05:23:43;;;;;;;18.65;8.75;;;;;;;10.51;85.93;100747.84;5055740;28;20047;-56
2022/01/01 05:26:16;;;;;;;13.73;7.35;;;;;;;10.51;85.76;100753.03;5038730;28;20091;-56
2022/01/01 05:28:50;;;;;;;20.38;9.40;;;;;;;10.51;85.92;100750.44;5039014;28;20125;-56
2022/01/01 05:31:22;;;;;;;15.90;8.77;;;;;;;10.50;85.88;100745.22;5055633;28;20382;-56
2022/01/01 05:33:55;;;;;;;16.73;8.90;;;;;;;10.50;86.12;100747.81;5038911;28;20392;-56
2022/01/01 05:36:25;;;;;;;16.00;8.82;;;;;;;10.50;85.96;100748.69;5056659;28;20068;-56
2022/01/01 05:38:59;;;;;;;18.77;9.65;;;;;;;10.49;85.74;100749.53;5056603;28;20048;-55
2022/01/01 05:41:24;;;;;;;13.30;8.90;;;;;;;10.49;85.98;100746.94;5055228;28;20041;-56
2022/01/01 05:43:52;;;;;;;17.52;9.63;;;;;;;10.49;85.89;100751.25;5055950;28;20361;-56
2022/01/01 05:46:20;;;;;;;18.98;9.98;;;;;;;10.49;85.87;100751.25;5038493;28;20032;-56
2022/01/01 05:48:51;;;;;;;16.13;10.02;;;;;;;10.49;85.96;100751.25;5056260;28;20044;-55
2022/01/01 05:51:23;;;;;;;18.38;10.38;;;;;;;10.46;86.04;100736.47;5054951;28;20033;-56
2022/01/01 05:53:54;;;;;;;17.20;10.32;;;;;;;10.46;85.91;100740.78;5054868;28;20036;-56
2022/01/01 05:56:22;;;;;;;18.38;10.75;;;;;;;10.45;85.76;100739.03;5038193;28;20093;-56
2022/01/01 05:58:48;;;;;;;14.68;9.02;;;;;;;10.44;85.73;100748.50;5055925;28;20032;-56
2022/01/01 06:01:18;;;;;;;19.02;11.45;;;;;;;10.43;85.79;100749.34;5055700;28;20044;-56
2022/01/01 06:03:47;;;;;;;19.65;11.60;;;;;;;10.44;85.62;100751.09;5037780;28;20033;-56
2022/01/01 06:06:18;;;;;;;18.15;10.50;;;;;;;10.43;86.01;100757.09;5055400;28;20029;-56
2022/01/01 06:08:49;;;;;;;13.88;9.93;;;;;;;10.42;85.82;100755.38;5037974;28;20039;-56
2022/01/01 06:11:20;;;;;;;16.58;10.43;;;;;;;10.41;85.77;100763.09;5038527;28;20041;-56
2022/01/01 06:13:51;;;;;;;15.57;10.65;;;;;;;10.39;86.02;100754.41;5056002;28;20033;-56
2022/01/01 06:16:16;;;;;;;17.60;10.73;;;;;;;10.37;85.74;100756.94;5055775;28;20391;-56
2022/01/01 06:18:42;;;;;;;16.15;10.32;;;;;;;10.36;85.73;100756.03;5054350;28;20476;-55
2022/01/01 06:21:10;;;;;;;22.02;11.27;;;;;;;10.35;85.61;100759.44;5055537;28;20419;-56
2022/01/01 06:23:41;;;;;;;17.63;10.70;;;;;;;10.35;85.61;100762.03;5055754;28;20029;-56
2022/01/01 06:26:15;;;;;;;18.75;10.55;;;;;;;10.36;85.64;100756.03;5037329;28;20037;-56
2022/01/01 06:28:48;;;;;;;18.17;10.30;;;;;;;10.34;86.01;100755.13;5055803;28;20037;-56
2022/01/01 06:31:19;;;;;;;16.30;9.73;;;;;;;10.33;85.97;100761.16;5054291;28;20106;-56
2022/01/01 06:33:50;;;;;;;13.90;10.55;;;;;;;10.32;85.77;100749.03;5054345;28;20044;-55
2022/01/01 06:36:21;;;;;;;19.17;10.35;;;;;;;10.32;85.56;100750.72;5055177;28;20041;-55
2022/01/01 06:38:47;;;;;;;18.38;10.90;;;;;;;10.30;85.67;100749.78;5037899;28;20043;-56
2022/01/01 06:41:20;;;;;;;15.15;9.82;;;;;;;10.29;85.65;100746.34;5053990;28;20044;-56
2022/01/01 06:43:51;;;;;;;16.92;9.85;;;;;;;10.30;85.72;100750.69;5037027;28;20078;-55
2022/01/01 06:46:25;;;;;;;20.73;10.52;;;;;;;10.30;85.58;100755.88;5053950;28;20532;-56
2022/01/01 06:48:50;;;;;;;12.43;9.70;;;;;;;10.28;85.87;100749.75;5037482;28;20044;-56
2022/01/01 06:51:19;;;;;;;16.23;9.43;;;;;;;10.28;85.47;100738.50;5055035;28;20033;-56
2022/01/01 06:53:47;;;;;;;17.13;9.60;;;;;;;10.27;85.41;100744.56;5054989;28;20044;-56
2022/01/01 06:56:12;;;;;;;19.63;9.82;;;;;;;10.27;85.69;100739.38;5053614;28;20036;-55
2022/01/01 06:58:39;;;;;;;16.25;10.25;;;;;;;10.27;85.55;100742.81;5054378;28;20037;-57
2022/01/01 07:01:04;;;;;;;14.20;9.35;;;;;;;10.26;85.74;100742.78;5054763;28;20033;-56
2022/01/01 07:03:30;;;;;;;16.77;9.73;;;;;;;10.26;85.75;100745.38;5052926;28;20166;-56
2022/01/01 07:05:55;;;;;;;17.63;9.05;;;;;;;10.25;85.91;100743.63;5053572;28;20024;-55
2022/01/01 07:08:21;;;;;;;14.40;7.95;;;;;;;10.24;85.45;100749.63;5053700;28;20140;-55
2022/01/01 07:10:49;;;;;;;18.55;9.75;;;;;;;10.21;85.38;100759.06;5054762;28;20068;-55
2022/01/01 07:13:16;;;;;;;13.30;9.63;;;;;;;10.21;85.35;100753.91;5036319;28;20080;-55
2022/01/01 07:15:42;;;;;;;17.00;9.43;;;;;;;10.21;85.52;100750.41;5036699;28;20029;-56
2022/01/01 07:18:10;;;;;;;15.65;8.93;;;;;;;10.19;85.75;100742.59;5054490;28;20082;-56
2022/01/01 07:20:36;;;;;;;15.18;9.00;;;;;;;10.19;85.70;100742.59;5054055;28;20140;-56
2022/01/01 07:23:02;;;;;;;12.68;8.40;;;;;;;10.18;85.41;100752.94;5054613;28;20500;-56
2022/01/01 07:25:29;;;;;;;14.77;8.63;;;;;;;10.19;85.51;100757.28;5053085;28;20036;-56
2022/01/01 07:27:58;;;;;;;11.38;8.05;;;;;;;10.18;85.61;100755.53;5036157;28;20097;-56
2022/01/01 07:30:24;;;;;;;12.95;8.07;;;;;;;10.17;85.71;100751.19;5054766;28;20029;-56
2022/01/01 07:32:49;;;;;;;16.75;8.88;;;;;;;10.17;85.32;100756.34;5054199;28;20040;-56
2022/01/01 07:35:19;;;;;;;14.13;9.05;;;;;;;10.17;85.63;100756.34;5054190;28;20036;-56
2022/01/01 07:37:52;;;;;;;14.65;8.02;;;;;;;10.17;85.54;100758.94;5052549;28;20455;-56
2022/01/01 07:40:18;;;;;;;13.13;8.25;;;;;;;10.15;85.46;100751.13;5052984;28;20106;-56
2022/01/01 07:42:48;;;;;;;13.98;8.60;;;;;;;10.17;85.61;100753.78;5052915;28;20044;-56
2022/01/01 07:45:18;;;;;;;17.30;8.77;;;;;;;10.14;85.54;100751.94;5052252;28;20025;-55
2022/01/01 07:47:51;;;;;;;12.70;8.70;;;;;;;10.14;85.57;100757.13;5054507;28;20041;-56
2022/01/01 07:50:19;;;;;;;16.17;8.18;;;;;;;10.13;85.48;100755.38;5054060;28;20033;-56
2022/01/01 07:52:47;;;;;;;12.05;8.10;;;;;;;10.15;85.37;100756.28;5053676;28;20037;-55
2022/01/01 07:55:15;;;;;;;13.32;8.63;;;;;;;10.15;85.58;100753.72;5036251;28;20088;-56
2022/01/01 07:57:47;;;;;;;14.38;7.65;;;;;;;10.16;85.46;100754.59;5035975;28;20077;-56
2022/01/01 08:00:14;;;;;;;15.70;6.57;;;;;;;10.16;85.80;100763.22;5035595;28;20052;-56
2022/01/01 08:02:44;;;;;;;14.65;7.68;;;;;;;10.16;85.37;100765.81;5052232;28;20045;-55
2022/01/01 08:05:11;;;;;;;11.18;7.90;;;;;;;10.16;85.39;100764.97;5053697;28;20037;-55
2022/01/01 08:07:38;;;;;;;11.38;7.75;;;;;;;10.16;85.45;100762.38;5035835;28;20389;-55
2022/01/01 08:10:05;;;;;;;14.15;8.20;;;;;;;10.17;85.35;100779.69;5035811;28;20033;-56
2022/01/01 08:12:31;;;;;;;20.83;8.00;;;;;;;10.16;85.40;100777.91;5053826;28;20109;-55
2022/01/01 08:14:57;;;;;;;13.35;7.68;;;;;;;10.16;85.39;100772.72;5053401;28;20553;-55
2022/01/01 08:17:23;;;;;;;15.73;8.35;;;;;;;10.16;85.27;100780.50;5052253;28;20107;-55
2022/01/01 08:19:49;;;;;;;13.50;7.68;;;;;;;10.16;85.77;100777.91;5035743;28;20172;-55
2022/01/01 08:22:17;;;;;;;13.23;7.57;;;;;;;10.15;85.69;100776.16;5035660;28;20209;-58
2022/01/01 08:24:46;;;;;;;12.43;7.53;;;;;;;10.16;85.55;100772.72;5053183;28;20124;-55
2022/01/01 08:27:17;;;;;;;16.02;7.40;;;;;;;10.16;85.58;100780.50;5053558;28;20040;-55
2022/01/01 08:29:48;;;;;;;10.38;7.15;;;;;;;10.16;85.30;100777.91;5035885;28;20033;-55
2022/01/01 08:32:19;;;;;;;13.95;6.60;;;;;;;10.16;85.23;100775.31;5053657;28;20036;-56
2022/01/01 08:34:44;;;;;;;12.20;7.45;;;;;;;10.15;85.61;100769.25;5035480;28;20071;-56
2022/01/01 08:37:18;;;;;;;10.10;6.93;;;;;;;10.15;85.54;100769.25;5052103;28;20037;-56
2022/01/01 08:39:44;;;;;;;11.90;7.03;;;;;;;10.16;85.47;100777.91;5053385;28;20064;-56
2022/01/01 08:42:12;;;;;;;14.30;7.93;;;;;;;10.15;85.16;100770.97;5052069;28;20064;-56
2022/01/01 08:44:37;;;;;;;10.80;6.75;;;;;;;10.16;85.47;100768.41;5053002;28;20029;-56
2022/01/01 08:47:05;;;;;;;9.80;7.05;;;;;;;10.16;85.47;100768.41;5053100;28;20400;-56
2022/01/01 08:49:36;;;;;;;12.75;7.18;;;;;;;10.17;85.44;100767.59;5051953;28;20044;-56
2022/01/01 08:52:04;;;;;;;11.32;6.75;;;;;;;10.17;85.54;100766.72;5053482;28;20047;-55
2022/01/01 08:54:29;;;;;;;12.45;7.07;;;;;;;10.16;85.64;100770.16;5053300;28;20029;-55
2022/01/01 08:57:00;;;;;;;10.60;7.30;;;;;;;10.16;85.38;100768.41;5053940;28;20044;-56
2022/01/01 08:59:37;;;;;;;16.33;7.43;;;;;;;10.17;85.41;100774.50;5040238;28;20508;-56
2022/01/01 09:02:05;;;;;;;11.55;7.63;;;;;;;10.17;85.25;100764.13;5055544;28;20511;-56
2022/01/01 09:04:33;;;;;;;13.88;6.38;;;;;;;10.18;85.26;100765.88;5055682;28;20056;-55
2022/01/01 09:06:58;;;;;;;12.93;6.30;;;;;;;10.18;85.43;100773.66;5056842;28;20095;-56
2022/01/01 09:09:27;;;;;;;9.90;6.72;;;;;;;10.17;85.66;100772.75;5056819;28;20504;-56
2022/01/01 09:11:56;;;;;;;13.45;7.10;;;;;;;10.17;85.57;100765.00;5039168;28;20037;-55
2022/01/01 09:14:25;;;;;;;11.85;7.25;;;;;;;10.17;85.27;100765.00;5056723;28;20037;-56
2022/01/01 09:16:53;;;;;;;10.82;7.25;;;;;;;10.18;85.20;100768.47;5056993;28;20033;-56
2022/01/01 09:19:27;;;;;;;14.25;8.07;;;;;;;10.18;85.40;100768.47;5056552;28;20369;-55
2022/01/01 09:21:57;;;;;;;11.27;7.65;;;;;;;10.18;85.30;100761.56;5039547;28;20040;-55
2022/01/01 09:24:28;;;;;;;14.13;7.53;;;;;;;10.19;85.59;100765.06;5056663;28;20044;-55
2022/01/01 09:26:56;;;;;;;10.77;6.70;;;;;;;10.19;85.43;100771.09;5038718;28;20033;-55
2022/01/01 09:29:25;;;;;;;13.05;6.65;;;;;;;10.20;85.13;100767.69;5056572;28;20041;-56
2022/01/01 09:31:59;;;;;;;11.45;7.63;;;;;;;10.21;85.36;100771.13;5056397;28;20037;-56
2022/01/01 09:34:26;;;;;;;11.68;6.57;;;;;;;10.20;85.56;100767.69;5055351;28;20522;-56
2022/01/01 09:36:54;;;;;;;12.85;6.30;;;;;;;10.21;85.47;100772.03;5056382;28;20389;-55
2022/01/01 09:39:24;;;;;;;11.27;6.68;;;;;;;10.21;84.99;100765.94;5056070;28;20450;-56
2022/01/01 09:41:55;;;;;;;10.18;6.28;;;;;;;10.21;85.47;100769.44;5054722;28;20055;-56
2022/01/01 09:44:26;;;;;;;10.85;5.85;;;;;;;10.24;85.40;100772.97;5038371;28;20033;-56
2022/01/01 09:46:54;;;;;;;8.77;6.38;;;;;;;10.23;85.44;100768.59;5055420;28;20036;-56
2022/01/01 09:49:24;;;;;;;9.88;6.05;;;;;;;10.25;85.22;100767.81;5056392;28;20037;-56
2022/01/01 09:52:00;;;;;;;12.55;6.15;;;;;;;10.25;85.49;100779.91;5056388;28;20065;-55
2022/01/01 09:54:30;;;;;;;14.60;7.20;;;;;;;10.27;85.46;100775.66;5056080;28;20072;-56
2022/01/01 09:56:59;;;;;;;8.93;5.80;;;;;;;10.26;85.22;100779.94;5038318;28;20044;-56
2022/01/01 09:59:33;;;;;;;10.23;5.75;;;;;;;10.27;85.54;100776.50;5038513;28;20036;-56
2022/01/01 10:01:59;;;;;;;13.50;5.40;;;;;;;10.28;85.43;100770.50;5055021;28;20056;-55
2022/01/01 10:04:50;;;;;;;12.77;6.38;;;;;;;10.31;85.51;100775.78;5055900;28;20480;-56
2022/01/01 10:07:16;;;;;;;11.00;5.55;;;;;;;10.32;85.23;100777.53;5055898;28;20064;-56
2022/01/01 10:09:44;;;;;;;8.98;5.43;;;;;;;10.33;85.28;100758.56;5056182;28;20037;-56
2022/01/01 10:12:17;;;;;;;7.65;5.30;;;;;;;10.33;85.25;100760.25;5056272;28;20037;-55
2022/01/01 10:14:47;;;;;;;10.30;5.57;;;;;;;10.35;85.62;100758.59;5038082;28;20033;-56
2022/01/01 10:17:16;;;;;;;8.85;5.25;;;;;;;10.36;85.08;100755.16;5054582;28;20059;-56
2022/01/01 10:19:49;;;;;;;10.80;5.15;;;;;;;10.36;85.52;100758.63;5054004;28;20041;-56
2022/01/01 10:22:20;;;;;;;10.55;5.70;;;;;;;10.38;85.15;100756.13;5055497;28;20686;-56
2022/01/01 10:27:59;;;;;;;10.13;5.07;;;;;;;10.41;85.26;100752.72;5053927;28;20469;-56
2022/01/01 10:30:36;;;;;;;9.35;5.25;;;;;;;10.42;85.48;100755.38;5054622;28;20488;-56
2022/01/01 10:33:10;;;;;;;10.02;5.15;;;;;;;10.42;85.42;100747.59;5053858;28;20128;-56
2022/01/01 10:35:41;;;;;;;8.95;5.30;;;;;;;10.43;85.58;100744.16;5055552;28;20033;-56
2022/01/01 10:38:26;;;;;;;10.48;5.57;;;;;;;10.45;85.21;100744.22;5037553;28;20033;-56
2022/01/01 10:41:10;;;;;;;6.13;4.65;;;;;;;10.43;85.09;100746.75;5037345;28;20511;-56
2022/01/01 10:43:45;;;;;;;8.85;4.90;;;;;;;10.45;85.48;100744.22;5055560;28;20381;-56
2022/01/01 10:46:19;;;;;;;6.35;4.15;;;;;;;10.46;85.39;100735.59;5054098;28;20059;-55
2022/01/01 10:51:22;;;;;;;11.00;4.63;;;;;;;10.48;85.16;100702.84;5054907;28;20377;-56
2022/01/01 10:54:03;;;;;;;7.35;3.90;;;;;;;10.49;85.45;100689.03;5053953;28;20123;-56
2022/01/01 10:56:38;;;;;;;9.55;3.88;;;;;;;10.49;85.44;100689.91;5055039;28;20048;-56
2022/01/01 10:59:04;;;;;;;10.77;4.70;;;;;;;10.51;85.11;100685.66;5053863;28;20036;-56
2022/01/01 11:01:34;;;;;;;6.45;4.03;;;;;;;10.53;85.33;100685.69;5053208;28;20048;-56
2022/01/01 11:04:06;;;;;;;6.50;4.72;;;;;;;10.57;84.96;100682.34;5053922;28;20055;-56
2022/01/01 11:06:37;;;;;;;9.60;4.32;;;;;;;10.60;84.99;100678.94;5054667;28;20124;-56
2022/01/01 11:09:13;;;;;;;6.68;4.03;;;;;;;10.63;85.29;100674.72;5037193;28;20041;-55
2022/01/01 11:11:44;;;;;;;9.02;4.60;;;;;;;10.64;85.02;100657.44;5053577;28;20033;-56
2022/01/01 11:14:13;;;;;;;9.68;4.65;;;;;;;10.66;85.24;100648.91;5053856;28;20048;-56
2022/01/01 11:16:39;;;;;;;8.50;4.30;;;;;;;10.69;85.01;100655.88;5036752;28;20043;-56
2022/01/01 11:19:10;;;;;;;6.43;4.22;;;;;;;10.74;85.00;100663.75;5052585;28;20112;-56
2022/01/01 11:21:37;;;;;;;6.00;3.28;;;;;;;10.76;85.09;100667.25;5053388;28;20427;-56
2022/01/01 11:24:03;;;;;;;5.28;3.38;;;;;;;10.77;85.24;100656.91;5036380;28;20116;-56
2022/01/01 11:26:37;;;;;;;8.25;4.30;;;;;;;10.79;84.80;100662.16;5054332;28;20091;-56
2022/01/01 11:29:08;;;;;;;7.72;3.80;;;;;;;10.81;85.04;100666.53;5036921;28;20072;-56
2022/01/01 11:31:35;;;;;;;6.05;3.70;;;;;;;10.82;85.08;100657.06;5054513;28;20047;-56
2022/01/01 11:34:06;;;;;;;7.38;3.92;;;;;;;10.84;84.79;100655.34;5036359;28;20510;-56
2022/01/01 11:36:34;;;;;;;8.00;4.18;;;;;;;10.84;84.88;100639.78;5036473;28;20396;-56